sensor_id;sensor_type;location;lat;lon;timestamp;P1;durP1;ratioP1;P2;durP2;ratioP2
68951;SDS011;56000;51.146;17.112;2022-10-22T00:01:35;18.10;;;9.90;;
68951;SDS011;56000;51.146;17.112;2022-10-22T00:04:08;15.80;;;10.60;;
68951;SDS011;56000;51.146;17.112;2022-10-22T00:06:41;15.50;;;9.40;;
68951;SDS011;56000;51.146;17.112;2022-10-22T00:09:14;15.10;;;8.10;;
68951;SDS011;56000;51.146;17.112;2022-10-22T00:11:47;19.60;;;10.70;;
68951;SDS011;56000;51.146;17.112;2022-10-22T00:14:20;14.80;;;10.70;;
68951;SDS011;56000;51.146;17.112;2022-10-22T00:16:53;19.40;;;11.70;;
68951;SDS011;56000;51.146;17.112;2022-10-22T00:19:29;16.50;;;9.50;;
68951;SDS011;56000;51.146;17.112;2022-10-22T00:22:02;16.00;;;9.80;;
68951;SDS011;56000;51.146;17.112;2022-10-22T00:24:35;10.60;;;7.90;;
68951;SDS011;56000;51.146;17.112;2022-10-22T00:27:10;17.40;;;10.00;;
68951;SDS011;56000;51.146;17.112;2022-10-22T00:29:44;17.10;;;10.20;;
68951;SDS011;56000;51.146;17.112;2022-10-22T00:32:16;15.60;;;10.50;;
68951;SDS011;56000;51.146;17.112;2022-10-22T00:34:49;15.50;;;9.00;;
68951;SDS011;56000;51.146;17.112;2022-10-22T00:37:22;16.00;;;10.80;;
68951;SDS011;56000;51.146;17.112;2022-10-22T00:39:55;15.70;;;9.10;;
68951;SDS011;56000;51.146;17.112;2022-10-22T00:42:28;14.00;;;9.60;;
68951;SDS011;56000;51.146;17.112;2022-10-22T00:45:17;13.60;;;8.80;;
68951;SDS011;56000;51.146;17.112;2022-10-22T00:47:56;11.50;;;8.20;;
68951;SDS011;56000;51.146;17.112;2022-10-22T00:50:35;14.50;;;10.60;;
68951;SDS011;56000;51.146;17.112;2022-10-22T00:53:11;14.70;;;9.40;;
68951;SDS011;56000;51.146;17.112;2022-10-22T00:55:48;12.60;;;8.90;;
68951;SDS011;56000;51.146;17.112;2022-10-22T00:58:25;14.40;;;8.80;;
68951;SDS011;56000;51.146;17.112;2022-10-22T01:01:01;14.50;;;9.00;;
68951;SDS011;56000;51.146;17.112;2022-10-22T01:03:36;14.70;;;9.20;;
68951;SDS011;56000;51.146;17.112;2022-10-22T01:06:11;14.80;;;10.00;;
68951;SDS011;56000;51.146;17.112;2022-10-22T01:11:29;13.00;;;8.70;;
68951;SDS011;56000;51.146;17.112;2022-10-22T01:14:16;12.70;;;8.40;;
68951;SDS011;56000;51.146;17.112;2022-10-22T01:16:58;16.00;;;10.00;;
68951;SDS011;56000;51.146;17.112;2022-10-22T01:19:43;15.70;;;9.50;;
68951;SDS011;56000;51.146;17.112;2022-10-22T01:22:28;16.10;;;9.20;;
68951;SDS011;56000;51.146;17.112;2022-10-22T01:25:07;15.80;;;8.00;;
68951;SDS011;56000;51.146;17.112;2022-10-22T01:27:56;17.30;;;9.70;;
68951;SDS011;56000;51.146;17.112;2022-10-22T01:30:37;13.70;;;9.20;;
68951;SDS011;56000;51.146;17.112;2022-10-22T01:33:12;13.40;;;9.30;;
68951;SDS011;56000;51.146;17.112;2022-10-22T01:35:48;16.40;;;9.90;;
68951;SDS011;56000;51.146;17.112;2022-10-22T01:38:22;15.30;;;9.40;;
68951;SDS011;56000;51.146;17.112;2022-10-22T01:40:56;13.00;;;8.70;;
68951;SDS011;56000;51.146;17.112;2022-10-22T01:43:30;16.70;;;9.20;;
68951;SDS011;56000;51.146;17.112;2022-10-22T01:46:04;20.70;;;11.30;;
68951;SDS011;56000;51.146;17.112;2022-10-22T01:48:44;14.80;;;9.20;;
68951;SDS011;56000;51.146;17.112;2022-10-22T01:51:42;14.60;;;9.20;;
68951;SDS011;56000;51.146;17.112;2022-10-22T01:54:26;14.40;;;9.00;;
68951;SDS011;56000;51.146;17.112;2022-10-22T01:57:12;15.00;;;8.30;;
68951;SDS011;56000;51.146;17.112;2022-10-22T01:59:56;10.70;;;8.30;;
68951;SDS011;56000;51.146;17.112;2022-10-22T02:02:38;14.20;;;8.80;;
68951;SDS011;56000;51.146;17.112;2022-10-22T02:05:20;15.50;;;8.40;;
68951;SDS011;56000;51.146;17.112;2022-10-22T02:08:02;17.50;;;8.70;;
68951;SDS011;56000;51.146;17.112;2022-10-22T02:13:15;13.40;;;8.60;;
68951;SDS011;56000;51.146;17.112;2022-10-22T02:15:52;15.70;;;9.20;;
68951;SDS011;56000;51.146;17.112;2022-10-22T02:18:28;14.20;;;8.40;;
68951;SDS011;56000;51.146;17.112;2022-10-22T02:21:08;13.60;;;9.10;;
68951;SDS011;56000;51.146;17.112;2022-10-22T02:23:41;13.10;;;8.50;;
68951;SDS011;56000;51.146;17.112;2022-10-22T02:26:21;14.50;;;8.10;;
68951;SDS011;56000;51.146;17.112;2022-10-22T02:29:04;13.30;;;8.60;;
68951;SDS011;56000;51.146;17.112;2022-10-22T02:31:42;18.90;;;9.40;;
68951;SDS011;56000;51.146;17.112;2022-10-22T02:34:20;13.50;;;7.90;;
68951;SDS011;56000;51.146;17.112;2022-10-22T02:36:56;12.90;;;8.70;;
68951;SDS011;56000;51.146;17.112;2022-10-22T02:39:30;12.50;;;9.20;;
68951;SDS011;56000;51.146;17.112;2022-10-22T02:42:05;15.20;;;8.30;;
68951;SDS011;56000;51.146;17.112;2022-10-22T02:44:38;14.10;;;8.00;;
68951;SDS011;56000;51.146;17.112;2022-10-22T02:47:11;15.10;;;8.30;;
68951;SDS011;56000;51.146;17.112;2022-10-22T02:49:44;12.50;;;8.50;;
68951;SDS011;56000;51.146;17.112;2022-10-22T02:52:17;12.90;;;8.00;;
68951;SDS011;56000;51.146;17.112;2022-10-22T02:54:49;12.50;;;8.30;;
68951;SDS011;56000;51.146;17.112;2022-10-22T02:57:22;17.80;;;8.60;;
68951;SDS011;56000;51.146;17.112;2022-10-22T02:59:55;13.70;;;9.20;;
68951;SDS011;56000;51.146;17.112;2022-10-22T03:02:28;16.20;;;8.30;;
68951;SDS011;56000;51.146;17.112;2022-10-22T03:05:01;13.40;;;8.30;;
68951;SDS011;56000;51.146;17.112;2022-10-22T03:07:34;10.20;;;7.30;;
68951;SDS011;56000;51.146;17.112;2022-10-22T03:10:08;15.50;;;10.20;;
68951;SDS011;56000;51.146;17.112;2022-10-22T03:12:41;17.90;;;10.40;;
68951;SDS011;56000;51.146;17.112;2022-10-22T03:15:14;15.40;;;9.10;;
68951;SDS011;56000;51.146;17.112;2022-10-22T03:17:47;22.50;;;10.50;;
68951;SDS011;56000;51.146;17.112;2022-10-22T03:20:20;15.50;;;9.70;;
68951;SDS011;56000;51.146;17.112;2022-10-22T03:22:53;14.40;;;9.60;;
68951;SDS011;56000;51.146;17.112;2022-10-22T03:25:27;13.70;;;9.50;;
68951;SDS011;56000;51.146;17.112;2022-10-22T03:28:04;10.90;;;7.80;;
68951;SDS011;56000;51.146;17.112;2022-10-22T03:30:39;13.50;;;8.10;;
68951;SDS011;56000;51.146;17.112;2022-10-22T03:33:12;16.50;;;9.50;;
68951;SDS011;56000;51.146;17.112;2022-10-22T03:35:45;13.10;;;8.20;;
68951;SDS011;56000;51.146;17.112;2022-10-22T03:38:19;16.30;;;9.10;;
68951;SDS011;56000;51.146;17.112;2022-10-22T03:40:51;14.90;;;9.50;;
68951;SDS011;56000;51.146;17.112;2022-10-22T03:43:24;16.40;;;9.70;;
68951;SDS011;56000;51.146;17.112;2022-10-22T03:45:57;25.50;;;11.30;;
68951;SDS011;56000;51.146;17.112;2022-10-22T03:48:30;19.30;;;10.60;;
68951;SDS011;56000;51.146;17.112;2022-10-22T03:51:03;13.00;;;7.00;;
68951;SDS011;56000;51.146;17.112;2022-10-22T03:53:36;13.10;;;7.80;;
68951;SDS011;56000;51.146;17.112;2022-10-22T03:56:10;12.70;;;8.70;;
68951;SDS011;56000;51.146;17.112;2022-10-22T03:58:43;14.80;;;8.60;;
68951;SDS011;56000;51.146;17.112;2022-10-22T04:01:16;14.10;;;7.60;;
68951;SDS011;56000;51.146;17.112;2022-10-22T04:03:49;12.60;;;8.10;;
68951;SDS011;56000;51.146;17.112;2022-10-22T04:06:22;10.60;;;7.40;;
68951;SDS011;56000;51.146;17.112;2022-10-22T04:08:55;14.90;;;8.10;;
68951;SDS011;56000;51.146;17.112;2022-10-22T04:11:29;12.10;;;8.50;;
68951;SDS011;56000;51.146;17.112;2022-10-22T04:14:03;25.20;;;15.10;;
68951;SDS011;56000;51.146;17.112;2022-10-22T04:16:37;18.80;;;11.90;;
68951;SDS011;56000;51.146;17.112;2022-10-22T04:19:10;20.40;;;10.50;;
68951;SDS011;56000;51.146;17.112;2022-10-22T04:21:43;12.70;;;9.00;;
68951;SDS011;56000;51.146;17.112;2022-10-22T04:24:16;15.60;;;10.40;;
68951;SDS011;56000;51.146;17.112;2022-10-22T04:26:49;14.20;;;9.40;;
68951;SDS011;56000;51.146;17.112;2022-10-22T04:29:23;13.10;;;8.60;;
68951;SDS011;56000;51.146;17.112;2022-10-22T04:31:56;15.80;;;8.50;;
68951;SDS011;56000;51.146;17.112;2022-10-22T04:34:29;12.60;;;8.40;;
68951;SDS011;56000;51.146;17.112;2022-10-22T04:37:02;17.10;;;9.40;;
68951;SDS011;56000;51.146;17.112;2022-10-22T04:39:35;9.50;;;7.40;;
68951;SDS011;56000;51.146;17.112;2022-10-22T04:42:08;15.70;;;10.00;;
68951;SDS011;56000;51.146;17.112;2022-10-22T04:44:41;13.60;;;8.40;;
68951;SDS011;56000;51.146;17.112;2022-10-22T04:47:14;12.10;;;8.50;;
68951;SDS011;56000;51.146;17.112;2022-10-22T04:49:46;19.70;;;9.80;;
68951;SDS011;56000;51.146;17.112;2022-10-22T04:52:19;16.80;;;10.00;;
68951;SDS011;56000;51.146;17.112;2022-10-22T04:54:52;15.00;;;9.70;;
68951;SDS011;56000;51.146;17.112;2022-10-22T04:57:24;19.80;;;10.80;;
68951;SDS011;56000;51.146;17.112;2022-10-22T05:00:01;13.70;;;9.60;;
68951;SDS011;56000;51.146;17.112;2022-10-22T05:02:34;17.00;;;9.70;;
68951;SDS011;56000;51.146;17.112;2022-10-22T05:05:08;14.30;;;9.70;;
68951;SDS011;56000;51.146;17.112;2022-10-22T05:07:41;14.00;;;9.70;;
68951;SDS011;56000;51.146;17.112;2022-10-22T05:10:14;15.90;;;10.30;;
68951;SDS011;56000;51.146;17.112;2022-10-22T05:12:46;14.40;;;9.10;;
68951;SDS011;56000;51.146;17.112;2022-10-22T05:15:19;23.70;;;12.90;;
68951;SDS011;56000;51.146;17.112;2022-10-22T05:17:52;18.10;;;11.00;;
68951;SDS011;56000;51.146;17.112;2022-10-22T05:20:25;17.00;;;11.50;;
68951;SDS011;56000;51.146;17.112;2022-10-22T05:22:58;17.70;;;10.10;;
68951;SDS011;56000;51.146;17.112;2022-10-22T05:25:31;17.30;;;11.70;;
68951;SDS011;56000;51.146;17.112;2022-10-22T05:28:08;17.60;;;11.00;;
68951;SDS011;56000;51.146;17.112;2022-10-22T05:30:41;18.00;;;10.70;;
68951;SDS011;56000;51.146;17.112;2022-10-22T05:33:22;21.10;;;12.00;;
68951;SDS011;56000;51.146;17.112;2022-10-22T05:35:55;18.50;;;11.50;;
68951;SDS011;56000;51.146;17.112;2022-10-22T05:38:28;13.40;;;8.70;;
68951;SDS011;56000;51.146;17.112;2022-10-22T05:41:02;19.00;;;10.80;;
68951;SDS011;56000;51.146;17.112;2022-10-22T05:43:37;20.60;;;10.20;;
68951;SDS011;56000;51.146;17.112;2022-10-22T05:46:12;16.70;;;9.70;;
68951;SDS011;56000;51.146;17.112;2022-10-22T05:48:52;11.00;;;8.40;;
68951;SDS011;56000;51.146;17.112;2022-10-22T05:51:28;18.80;;;11.00;;
68951;SDS011;56000;51.146;17.112;2022-10-22T05:54:04;20.40;;;11.30;;
68951;SDS011;56000;51.146;17.112;2022-10-22T05:56:39;17.60;;;11.70;;
68951;SDS011;56000;51.146;17.112;2022-10-22T05:59:12;18.10;;;11.40;;
68951;SDS011;56000;51.146;17.112;2022-10-22T06:01:45;17.50;;;10.50;;
68951;SDS011;56000;51.146;17.112;2022-10-22T06:04:18;15.10;;;9.50;;
68951;SDS011;56000;51.146;17.112;2022-10-22T06:06:51;14.10;;;9.20;;
68951;SDS011;56000;51.146;17.112;2022-10-22T06:09:26;12.00;;;9.50;;
68951;SDS011;56000;51.146;17.112;2022-10-22T06:12:01;17.80;;;10.90;;
68951;SDS011;56000;51.146;17.112;2022-10-22T06:14:37;13.60;;;9.40;;
68951;SDS011;56000;51.146;17.112;2022-10-22T06:17:11;25.60;;;11.10;;
68951;SDS011;56000;51.146;17.112;2022-10-22T06:19:44;17.70;;;11.10;;
68951;SDS011;56000;51.146;17.112;2022-10-22T06:22:16;17.60;;;12.60;;
68951;SDS011;56000;51.146;17.112;2022-10-22T06:24:49;20.20;;;11.40;;
68951;SDS011;56000;51.146;17.112;2022-10-22T06:27:23;21.70;;;11.40;;
68951;SDS011;56000;51.146;17.112;2022-10-22T06:29:56;21.60;;;12.10;;
68951;SDS011;56000;51.146;17.112;2022-10-22T06:32:28;20.90;;;12.30;;
68951;SDS011;56000;51.146;17.112;2022-10-22T06:35:01;17.60;;;11.60;;
68951;SDS011;56000;51.146;17.112;2022-10-22T06:37:35;18.30;;;11.20;;
68951;SDS011;56000;51.146;17.112;2022-10-22T06:40:10;19.30;;;11.60;;
68951;SDS011;56000;51.146;17.112;2022-10-22T06:42:45;34.20;;;13.20;;
68951;SDS011;56000;51.146;17.112;2022-10-22T06:45:18;25.70;;;12.60;;
68951;SDS011;56000;51.146;17.112;2022-10-22T06:47:51;17.80;;;11.40;;
68951;SDS011;56000;51.146;17.112;2022-10-22T06:50:24;22.60;;;13.60;;
68951;SDS011;56000;51.146;17.112;2022-10-22T06:52:57;22.00;;;14.10;;
68951;SDS011;56000;51.146;17.112;2022-10-22T06:55:30;32.00;;;16.80;;
68951;SDS011;56000;51.146;17.112;2022-10-22T06:58:05;18.60;;;13.30;;
68951;SDS011;56000;51.146;17.112;2022-10-22T07:00:38;18.50;;;12.30;;
68951;SDS011;56000;51.146;17.112;2022-10-22T07:03:12;25.30;;;12.90;;
68951;SDS011;56000;51.146;17.112;2022-10-22T07:05:45;19.90;;;12.50;;
68951;SDS011;56000;51.146;17.112;2022-10-22T07:08:18;22.60;;;12.00;;
68951;SDS011;56000;51.146;17.112;2022-10-22T07:10:51;20.90;;;12.70;;
68951;SDS011;56000;51.146;17.112;2022-10-22T07:13:24;15.40;;;10.30;;
68951;SDS011;56000;51.146;17.112;2022-10-22T07:15:57;19.30;;;9.80;;
68951;SDS011;56000;51.146;17.112;2022-10-22T07:18:30;15.50;;;10.10;;
68951;SDS011;56000;51.146;17.112;2022-10-22T07:21:05;17.50;;;10.80;;
68951;SDS011;56000;51.146;17.112;2022-10-22T07:23:41;22.00;;;12.80;;
68951;SDS011;56000;51.146;17.112;2022-10-22T07:26:15;21.90;;;10.90;;
68951;SDS011;56000;51.146;17.112;2022-10-22T07:28:50;17.10;;;10.20;;
68951;SDS011;56000;51.146;17.112;2022-10-22T07:31:24;15.20;;;9.50;;
68951;SDS011;56000;51.146;17.112;2022-10-22T07:33:58;17.60;;;10.00;;
68951;SDS011;56000;51.146;17.112;2022-10-22T07:36:30;15.80;;;10.10;;
68951;SDS011;56000;51.146;17.112;2022-10-22T07:39:04;17.60;;;11.00;;
68951;SDS011;56000;51.146;17.112;2022-10-22T07:41:37;22.00;;;12.20;;
68951;SDS011;56000;51.146;17.112;2022-10-22T07:44:10;37.30;;;24.20;;
68951;SDS011;56000;51.146;17.112;2022-10-22T07:46:43;26.60;;;15.60;;
68951;SDS011;56000;51.146;17.112;2022-10-22T07:49:17;23.40;;;13.70;;
68951;SDS011;56000;51.146;17.112;2022-10-22T07:51:50;25.60;;;14.60;;
68951;SDS011;56000;51.146;17.112;2022-10-22T07:54:23;26.60;;;15.10;;
68951;SDS011;56000;51.146;17.112;2022-10-22T07:56:56;23.50;;;13.90;;
68951;SDS011;56000;51.146;17.112;2022-10-22T07:59:29;25.90;;;15.60;;
68951;SDS011;56000;51.146;17.112;2022-10-22T08:02:02;21.80;;;12.90;;
68951;SDS011;56000;51.146;17.112;2022-10-22T08:04:35;21.80;;;11.90;;
68951;SDS011;56000;51.146;17.112;2022-10-22T08:07:08;21.30;;;12.20;;
68951;SDS011;56000;51.146;17.112;2022-10-22T08:09:41;19.10;;;11.40;;
68951;SDS011;56000;51.146;17.112;2022-10-22T08:12:13;18.40;;;10.10;;
68951;SDS011;56000;51.146;17.112;2022-10-22T08:14:46;22.80;;;12.10;;
68951;SDS011;56000;51.146;17.112;2022-10-22T08:17:19;23.80;;;10.90;;
68951;SDS011;56000;51.146;17.112;2022-10-22T08:19:52;30.10;;;11.50;;
68951;SDS011;56000;51.146;17.112;2022-10-22T08:22:25;22.40;;;10.30;;
68951;SDS011;56000;51.146;17.112;2022-10-22T08:24:58;30.20;;;11.60;;
68951;SDS011;56000;51.146;17.112;2022-10-22T08:27:30;21.00;;;10.70;;
68951;SDS011;56000;51.146;17.112;2022-10-22T08:30:06;27.10;;;12.20;;
68951;SDS011;56000;51.146;17.112;2022-10-22T08:32:41;18.90;;;10.10;;
68951;SDS011;56000;51.146;17.112;2022-10-22T08:35:14;16.90;;;9.50;;
68951;SDS011;56000;51.146;17.112;2022-10-22T08:37:46;18.00;;;10.90;;
68951;SDS011;56000;51.146;17.112;2022-10-22T08:40:24;21.30;;;9.40;;
68951;SDS011;56000;51.146;17.112;2022-10-22T08:46:58;16.90;;;10.10;;
68951;SDS011;56000;51.146;17.112;2022-10-22T08:49:48;18.00;;;10.40;;
68951;SDS011;56000;51.146;17.112;2022-10-22T08:52:23;19.10;;;10.60;;
68951;SDS011;56000;51.146;17.112;2022-10-22T08:54:57;18.10;;;10.60;;
68951;SDS011;56000;51.146;17.112;2022-10-22T08:57:44;20.10;;;11.10;;
68951;SDS011;56000;51.146;17.112;2022-10-22T09:00:23;17.10;;;9.60;;
68951;SDS011;56000;51.146;17.112;2022-10-22T09:03:09;12.00;;;8.10;;
68951;SDS011;56000;51.146;17.112;2022-10-22T09:06:01;15.60;;;9.40;;
68951;SDS011;56000;51.146;17.112;2022-10-22T09:08:38;14.00;;;8.30;;
68951;SDS011;56000;51.146;17.112;2022-10-22T09:11:21;13.40;;;8.80;;
68951;SDS011;56000;51.146;17.112;2022-10-22T09:13:56;15.50;;;8.40;;
68951;SDS011;56000;51.146;17.112;2022-10-22T09:16:35;13.80;;;9.70;;
68951;SDS011;56000;51.146;17.112;2022-10-22T09:19:17;19.50;;;10.00;;
68951;SDS011;56000;51.146;17.112;2022-10-22T09:21:57;18.10;;;9.30;;
68951;SDS011;56000;51.146;17.112;2022-10-22T09:24:39;16.60;;;10.10;;
68951;SDS011;56000;51.146;17.112;2022-10-22T09:27:17;17.30;;;10.70;;
68951;SDS011;56000;51.146;17.112;2022-10-22T09:29:52;15.90;;;11.10;;
68951;SDS011;56000;51.146;17.112;2022-10-22T09:32:26;19.30;;;11.00;;
68951;SDS011;56000;51.146;17.112;2022-10-22T09:34:59;20.50;;;11.50;;
68951;SDS011;56000;51.146;17.112;2022-10-22T09:37:32;18.90;;;11.50;;
68951;SDS011;56000;51.146;17.112;2022-10-22T09:40:06;20.10;;;12.80;;
68951;SDS011;56000;51.146;17.112;2022-10-22T09:42:44;18.40;;;11.80;;
68951;SDS011;56000;51.146;17.112;2022-10-22T09:45:19;22.60;;;11.90;;
68951;SDS011;56000;51.146;17.112;2022-10-22T09:48:07;19.80;;;12.10;;
68951;SDS011;56000;51.146;17.112;2022-10-22T09:50:45;25.80;;;15.00;;
68951;SDS011;56000;51.146;17.112;2022-10-22T09:53:21;17.50;;;11.40;;
68951;SDS011;56000;51.146;17.112;2022-10-22T09:55:57;20.90;;;13.20;;
68951;SDS011;56000;51.146;17.112;2022-10-22T09:58:42;18.50;;;11.40;;
68951;SDS011;56000;51.146;17.112;2022-10-22T10:01:21;25.60;;;13.60;;
68951;SDS011;56000;51.146;17.112;2022-10-22T10:03:55;20.80;;;12.40;;
68951;SDS011;56000;51.146;17.112;2022-10-22T10:06:39;23.70;;;12.90;;
68951;SDS011;56000;51.146;17.112;2022-10-22T10:09:16;30.80;;;15.40;;
68951;SDS011;56000;51.146;17.112;2022-10-22T10:11:55;19.10;;;11.50;;
68951;SDS011;56000;51.146;17.112;2022-10-22T10:14:38;32.60;;;15.40;;
68951;SDS011;56000;51.146;17.112;2022-10-22T10:17:20;27.70;;;14.10;;
68951;SDS011;56000;51.146;17.112;2022-10-22T10:20:14;35.00;;;15.20;;
68951;SDS011;56000;51.146;17.112;2022-10-22T10:23:06;33.60;;;16.50;;
68951;SDS011;56000;51.146;17.112;2022-10-22T10:25:50;34.80;;;16.90;;
68951;SDS011;56000;51.146;17.112;2022-10-22T10:28:38;32.40;;;16.50;;
68951;SDS011;56000;51.146;17.112;2022-10-22T10:31:31;35.70;;;16.70;;
68951;SDS011;56000;51.146;17.112;2022-10-22T10:34:16;29.40;;;16.70;;
68951;SDS011;56000;51.146;17.112;2022-10-22T10:37:03;32.20;;;15.50;;
68951;SDS011;56000;51.146;17.112;2022-10-22T10:39:59;30.30;;;15.50;;
68951;SDS011;56000;51.146;17.112;2022-10-22T10:42:47;35.20;;;17.00;;
68951;SDS011;56000;51.146;17.112;2022-10-22T10:45:29;36.00;;;17.60;;
68951;SDS011;56000;51.146;17.112;2022-10-22T10:48:20;40.40;;;18.30;;
68951;SDS011;56000;51.146;17.112;2022-10-22T10:51:09;34.30;;;18.50;;
68951;SDS011;56000;51.146;17.112;2022-10-22T10:54:02;37.50;;;19.40;;
68951;SDS011;56000;51.146;17.112;2022-10-22T10:56:46;40.50;;;18.80;;
68951;SDS011;56000;51.146;17.112;2022-10-22T10:59:25;45.00;;;18.60;;
68951;SDS011;56000;51.146;17.112;2022-10-22T11:05:42;30.60;;;16.90;;
68951;SDS011;56000;51.146;17.112;2022-10-22T11:08:19;33.00;;;18.00;;
68951;SDS011;56000;51.146;17.112;2022-10-22T11:10:56;28.70;;;15.80;;
68951;SDS011;56000;51.146;17.112;2022-10-22T11:13:35;29.10;;;15.10;;
68951;SDS011;56000;51.146;17.112;2022-10-22T11:16:17;27.10;;;12.90;;
68951;SDS011;56000;51.146;17.112;2022-10-22T11:18:56;27.50;;;14.50;;
68951;SDS011;56000;51.146;17.112;2022-10-22T11:21:35;32.60;;;15.60;;
68951;SDS011;56000;51.146;17.112;2022-10-22T11:24:15;27.40;;;15.40;;
68951;SDS011;56000;51.146;17.112;2022-10-22T11:26:57;26.10;;;14.50;;
68951;SDS011;56000;51.146;17.112;2022-10-22T11:29:38;29.00;;;16.40;;
68951;SDS011;56000;51.146;17.112;2022-10-22T11:32:16;29.20;;;15.70;;
68951;SDS011;56000;51.146;17.112;2022-10-22T11:34:53;31.10;;;16.40;;
68951;SDS011;56000;51.146;17.112;2022-10-22T11:37:29;31.40;;;14.50;;
68951;SDS011;56000;51.146;17.112;2022-10-22T11:40:12;36.20;;;16.40;;
68951;SDS011;56000;51.146;17.112;2022-10-22T11:42:49;29.50;;;15.80;;
68951;SDS011;56000;51.146;17.112;2022-10-22T11:45:33;25.20;;;15.00;;
68951;SDS011;56000;51.146;17.112;2022-10-22T11:48:15;30.30;;;16.00;;
68951;SDS011;56000;51.146;17.112;2022-10-22T11:50:50;28.50;;;15.00;;
68951;SDS011;56000;51.146;17.112;2022-10-22T11:53:31;24.80;;;14.90;;
68951;SDS011;56000;51.146;17.112;2022-10-22T11:56:22;32.90;;;16.10;;
68951;SDS011;56000;51.146;17.112;2022-10-22T11:58:56;23.20;;;13.80;;
68951;SDS011;56000;51.146;17.112;2022-10-22T12:01:41;29.50;;;14.50;;
68951;SDS011;56000;51.146;17.112;2022-10-22T12:04:21;28.30;;;15.60;;
68951;SDS011;56000;51.146;17.112;2022-10-22T12:07:30;26.90;;;14.90;;
68951;SDS011;56000;51.146;17.112;2022-10-22T12:10:11;28.20;;;14.40;;
68951;SDS011;56000;51.146;17.112;2022-10-22T12:12:55;25.00;;;13.10;;
68951;SDS011;56000;51.146;17.112;2022-10-22T12:15:32;25.60;;;13.10;;
68951;SDS011;56000;51.146;17.112;2022-10-22T12:18:16;22.40;;;13.60;;
68951;SDS011;56000;51.146;17.112;2022-10-22T12:20:51;21.70;;;12.40;;
68951;SDS011;56000;51.146;17.112;2022-10-22T12:23:27;25.40;;;12.90;;
68951;SDS011;56000;51.146;17.112;2022-10-22T12:26:05;21.80;;;11.60;;
68951;SDS011;56000;51.146;17.112;2022-10-22T12:28:55;20.00;;;11.90;;
68951;SDS011;56000;51.146;17.112;2022-10-22T12:31:34;27.50;;;11.80;;
68951;SDS011;56000;51.146;17.112;2022-10-22T12:34:10;20.60;;;10.70;;
68951;SDS011;56000;51.146;17.112;2022-10-22T12:36:47;16.90;;;7.60;;
68951;SDS011;56000;51.146;17.112;2022-10-22T12:39:24;12.20;;;6.30;;
68951;SDS011;56000;51.146;17.112;2022-10-22T12:41:58;9.30;;;5.80;;
68951;SDS011;56000;51.146;17.112;2022-10-22T12:44:34;10.20;;;4.70;;
68951;SDS011;56000;51.146;17.112;2022-10-22T12:47:10;9.40;;;5.00;;
68951;SDS011;56000;51.146;17.112;2022-10-22T12:49:49;6.90;;;3.50;;
68951;SDS011;56000;51.146;17.112;2022-10-22T12:52:22;9.00;;;4.10;;
68951;SDS011;56000;51.146;17.112;2022-10-22T12:54:55;7.50;;;3.70;;
68951;SDS011;56000;51.146;17.112;2022-10-22T12:57:28;10.70;;;4.30;;
68951;SDS011;56000;51.146;17.112;2022-10-22T13:00:01;6.60;;;4.30;;
68951;SDS011;56000;51.146;17.112;2022-10-22T13:02:35;8.40;;;3.80;;
68951;SDS011;56000;51.146;17.112;2022-10-22T13:05:23;6.20;;;3.90;;
68951;SDS011;56000;51.146;17.112;2022-10-22T13:08:06;7.90;;;4.50;;
68951;SDS011;56000;51.146;17.112;2022-10-22T13:10:48;8.40;;;3.90;;
68951;SDS011;56000;51.146;17.112;2022-10-22T13:13:32;10.90;;;4.50;;
68951;SDS011;56000;51.146;17.112;2022-10-22T13:16:16;9.00;;;4.50;;
68951;SDS011;56000;51.146;17.112;2022-10-22T13:18:53;9.80;;;4.00;;
68951;SDS011;56000;51.146;17.112;2022-10-22T13:21:31;10.60;;;4.10;;
68951;SDS011;56000;51.146;17.112;2022-10-22T13:24:21;6.40;;;4.40;;
68951;SDS011;56000;51.146;17.112;2022-10-22T13:26:54;8.60;;;4.20;;
68951;SDS011;56000;51.146;17.112;2022-10-22T13:29:27;9.50;;;5.10;;
68951;SDS011;56000;51.146;17.112;2022-10-22T13:32:00;7.90;;;4.70;;
68951;SDS011;56000;51.146;17.112;2022-10-22T13:34:33;10.40;;;5.60;;
68951;SDS011;56000;51.146;17.112;2022-10-22T13:37:08;10.60;;;4.90;;
68951;SDS011;56000;51.146;17.112;2022-10-22T13:39:41;8.50;;;4.70;;
68951;SDS011;56000;51.146;17.112;2022-10-22T13:42:15;8.10;;;4.90;;
68951;SDS011;56000;51.146;17.112;2022-10-22T13:44:47;9.80;;;5.20;;
68951;SDS011;56000;51.146;17.112;2022-10-22T13:47:25;9.30;;;5.90;;
68951;SDS011;56000;51.146;17.112;2022-10-22T13:50:00;9.30;;;6.80;;
68951;SDS011;56000;51.146;17.112;2022-10-22T13:52:40;9.70;;;6.10;;
68951;SDS011;56000;51.146;17.112;2022-10-22T13:55:17;11.80;;;5.60;;
68951;SDS011;56000;51.146;17.112;2022-10-22T13:57:55;11.10;;;5.90;;
68951;SDS011;56000;51.146;17.112;2022-10-22T14:00:30;8.50;;;5.70;;
68951;SDS011;56000;51.146;17.112;2022-10-22T14:03:03;10.20;;;6.30;;
68951;SDS011;56000;51.146;17.112;2022-10-22T14:05:39;13.60;;;7.60;;
68951;SDS011;56000;51.146;17.112;2022-10-22T14:08:14;11.10;;;7.30;;
68951;SDS011;56000;51.146;17.112;2022-10-22T14:10:49;11.50;;;7.20;;
68951;SDS011;56000;51.146;17.112;2022-10-22T14:13:22;11.30;;;6.50;;
68951;SDS011;56000;51.146;17.112;2022-10-22T14:15:56;12.10;;;7.50;;
68951;SDS011;56000;51.146;17.112;2022-10-22T14:18:29;11.60;;;7.10;;
68951;SDS011;56000;51.146;17.112;2022-10-22T14:21:02;14.90;;;7.80;;
68951;SDS011;56000;51.146;17.112;2022-10-22T14:23:38;13.10;;;7.70;;
68951;SDS011;56000;51.146;17.112;2022-10-22T14:26:19;13.90;;;7.70;;
68951;SDS011;56000;51.146;17.112;2022-10-22T14:28:56;13.70;;;8.10;;
68951;SDS011;56000;51.146;17.112;2022-10-22T14:31:40;15.80;;;8.70;;
68951;SDS011;56000;51.146;17.112;2022-10-22T14:34:14;24.10;;;10.20;;
68951;SDS011;56000;51.146;17.112;2022-10-22T14:36:47;15.00;;;8.30;;
68951;SDS011;56000;51.146;17.112;2022-10-22T14:39:20;15.60;;;9.00;;
68951;SDS011;56000;51.146;17.112;2022-10-22T14:41:53;17.60;;;9.30;;
68951;SDS011;56000;51.146;17.112;2022-10-22T14:44:27;16.90;;;8.80;;
68951;SDS011;56000;51.146;17.112;2022-10-22T14:46:59;14.70;;;9.70;;
68951;SDS011;56000;51.146;17.112;2022-10-22T14:49:32;20.90;;;11.20;;
68951;SDS011;56000;51.146;17.112;2022-10-22T14:52:05;12.90;;;9.30;;
68951;SDS011;56000;51.146;17.112;2022-10-22T14:54:42;23.50;;;10.80;;
68951;SDS011;56000;51.146;17.112;2022-10-22T14:57:17;19.00;;;9.50;;
68951;SDS011;56000;51.146;17.112;2022-10-22T14:59:50;19.00;;;10.00;;
68951;SDS011;56000;51.146;17.112;2022-10-22T15:02:23;15.60;;;9.20;;
68951;SDS011;56000;51.146;17.112;2022-10-22T15:04:56;18.50;;;9.20;;
68951;SDS011;56000;51.146;17.112;2022-10-22T15:07:29;17.00;;;10.40;;
68951;SDS011;56000;51.146;17.112;2022-10-22T15:10:02;19.60;;;10.50;;
68951;SDS011;56000;51.146;17.112;2022-10-22T15:12:37;16.20;;;10.40;;
68951;SDS011;56000;51.146;17.112;2022-10-22T15:15:10;18.70;;;11.40;;
68951;SDS011;56000;51.146;17.112;2022-10-22T15:17:47;16.10;;;9.20;;
68951;SDS011;56000;51.146;17.112;2022-10-22T15:20:20;18.90;;;12.10;;
68951;SDS011;56000;51.146;17.112;2022-10-22T15:22:53;16.90;;;10.10;;